sensor_id;sensor_type;location;lat;lon;timestamp;temperature;humidity
431;DHT22;202;48.764;9.172;2023-08-08T00:00:16;16.70;33.20
431;DHT22;202;48.764;9.172;2023-08-08T00:02:47;16.70;33.00
431;DHT22;202;48.764;9.172;2023-08-08T00:05:50;16.80;32.70
431;DHT22;202;48.764;9.172;2023-08-08T00:08:35;16.80;32.90
431;DHT22;202;48.764;9.172;2023-08-08T00:11:14;16.70;32.90
431;DHT22;202;48.764;9.172;2023-08-08T00:13:53;16.80;33.00
431;DHT22;202;48.764;9.172;2023-08-08T00:16:30;16.80;33.50
431;DHT22;202;48.764;9.172;2023-08-08T00:19:16;16.80;32.70
431;DHT22;202;48.764;9.172;2023-08-08T00:21:43;16.90;32.00
431;DHT22;202;48.764;9.172;2023-08-08T00:24:18;16.90;32.50
431;DHT22;202;48.764;9.172;2023-08-08T00:26:48;17.00;31.90
431;DHT22;202;48.764;9.172;2023-08-08T00:29:26;17.00;32.20
431;DHT22;202;48.764;9.172;2023-08-08T00:31:56;17.00;32.20
431;DHT22;202;48.764;9.172;2023-08-08T00:34:25;17.00;31.90
431;DHT22;202;48.764;9.172;2023-08-08T00:36:55;17.00;31.70
431;DHT22;202;48.764;9.172;2023-08-08T00:39:25;17.00;31.80
431;DHT22;202;48.764;9.172;2023-08-08T00:41:52;17.00;31.90
431;DHT22;202;48.764;9.172;2023-08-08T00:44:22;17.00;31.90
431;DHT22;202;48.764;9.172;2023-08-08T00:46:49;17.10;32.00
431;DHT22;202;48.764;9.172;2023-08-08T00:49:17;17.00;32.00
431;DHT22;202;48.764;9.172;2023-08-08T00:51:44;17.00;32.30
431;DHT22;202;48.764;9.172;2023-08-08T00:54:12;17.10;32.00
431;DHT22;202;48.764;9.172;2023-08-08T00:56:39;17.10;32.40
431;DHT22;202;48.764;9.172;2023-08-08T00:59:07;17.10;31.80
431;DHT22;202;48.764;9.172;2023-08-08T01:01:35;17.10;32.00
431;DHT22;202;48.764;9.172;2023-08-08T01:04:02;17.10;32.30
431;DHT22;202;48.764;9.172;2023-08-08T01:06:42;16.90;32.10
431;DHT22;202;48.764;9.172;2023-08-08T01:09:15;16.90;32.30
431;DHT22;202;48.764;9.172;2023-08-08T01:11:44;17.00;32.50
431;DHT22;202;48.764;9.172;2023-08-08T01:14:14;17.00;32.50
431;DHT22;202;48.764;9.172;2023-08-08T01:16:43;17.00;32.30
431;DHT22;202;48.764;9.172;2023-08-08T01:19:13;17.10;32.40
431;DHT22;202;48.764;9.172;2023-08-08T01:21:44;17.10;32.70
431;DHT22;202;48.764;9.172;2023-08-08T01:24:17;17.20;32.70
431;DHT22;202;48.764;9.172;2023-08-08T01:26:45;17.20;32.20
431;DHT22;202;48.764;9.172;2023-08-08T01:29:12;17.10;32.30
431;DHT22;202;48.764;9.172;2023-08-08T01:31:39;17.00;32.30
431;DHT22;202;48.764;9.172;2023-08-08T01:34:06;17.10;32.70
431;DHT22;202;48.764;9.172;2023-08-08T01:36:40;16.80;33.20
431;DHT22;202;48.764;9.172;2023-08-08T01:39:13;16.90;33.40
431;DHT22;202;48.764;9.172;2023-08-08T01:41:42;16.70;33.50
431;DHT22;202;48.764;9.172;2023-08-08T01:44:10;16.90;33.70
431;DHT22;202;48.764;9.172;2023-08-08T01:46:37;16.80;33.70
431;DHT22;202;48.764;9.172;2023-08-08T01:49:05;16.90;33.80
431;DHT22;202;48.764;9.172;2023-08-08T01:51:31;16.90;33.60
431;DHT22;202;48.764;9.172;2023-08-08T01:53:58;17.00;33.60
431;DHT22;202;48.764;9.172;2023-08-08T01:56:25;17.10;33.60
431;DHT22;202;48.764;9.172;2023-08-08T01:58:53;17.00;33.30
431;DHT22;202;48.764;9.172;2023-08-08T02:01:20;17.00;33.90
431;DHT22;202;48.764;9.172;2023-08-08T02:03:47;16.90;33.80
431;DHT22;202;48.764;9.172;2023-08-08T02:06:14;16.90;33.70
431;DHT22;202;48.764;9.172;2023-08-08T02:08:41;17.00;33.90
431;DHT22;202;48.764;9.172;2023-08-08T02:11:08;16.90;33.90
431;DHT22;202;48.764;9.172;2023-08-08T02:13:34;17.00;33.90
431;DHT22;202;48.764;9.172;2023-08-08T02:16:03;16.90;33.90
431;DHT22;202;48.764;9.172;2023-08-08T02:18:30;17.00;33.70
431;DHT22;202;48.764;9.172;2023-08-08T02:20:57;17.00;33.50
431;DHT22;202;48.764;9.172;2023-08-08T02:23:25;17.00;33.90
431;DHT22;202;48.764;9.172;2023-08-08T02:25:55;16.90;33.80
431;DHT22;202;48.764;9.172;2023-08-08T02:28:22;16.90;34.20
431;DHT22;202;48.764;9.172;2023-08-08T02:30:51;16.90;34.20
431;DHT22;202;48.764;9.172;2023-08-08T02:33:22;16.80;34.30
431;DHT22;202;48.764;9.172;2023-08-08T02:35:53;16.80;34.40
431;DHT22;202;48.764;9.172;2023-08-08T02:38:23;16.70;34.90
431;DHT22;202;48.764;9.172;2023-08-08T02:40:53;16.70;35.30
431;DHT22;202;48.764;9.172;2023-08-08T02:43:20;16.70;34.90
431;DHT22;202;48.764;9.172;2023-08-08T02:45:52;16.60;34.90
431;DHT22;202;48.764;9.172;2023-08-08T02:48:21;16.60;35.20
431;DHT22;202;48.764;9.172;2023-08-08T02:50:53;16.70;35.40
431;DHT22;202;48.764;9.172;2023-08-08T02:53:22;16.70;35.10
431;DHT22;202;48.764;9.172;2023-08-08T02:55:49;16.70;34.90
431;DHT22;202;48.764;9.172;2023-08-08T02:58:16;16.60;34.90
431;DHT22;202;48.764;9.172;2023-08-08T03:00:43;16.60;35.20
431;DHT22;202;48.764;9.172;2023-08-08T03:03:10;16.60;35.30
431;DHT22;202;48.764;9.172;2023-08-08T03:05:39;16.60;35.20
431;DHT22;202;48.764;9.172;2023-08-08T03:08:06;16.50;35.10
431;DHT22;202;48.764;9.172;2023-08-08T03:10:32;16.60;35.00
431;DHT22;202;48.764;9.172;2023-08-08T03:13:00;16.60;35.20
431;DHT22;202;48.764;9.172;2023-08-08T03:15:27;16.60;35.00
431;DHT22;202;48.764;9.172;2023-08-08T03:17:54;16.70;35.20
431;DHT22;202;48.764;9.172;2023-08-08T03:20:21;16.60;35.20
431;DHT22;202;48.764;9.172;2023-08-08T03:22:50;16.60;35.60
431;DHT22;202;48.764;9.172;2023-08-08T03:25:17;16.60;35.10
431;DHT22;202;48.764;9.172;2023-08-08T03:27:45;16.60;35.20
431;DHT22;202;48.764;9.172;2023-08-08T03:30:13;16.70;35.20
431;DHT22;202;48.764;9.172;2023-08-08T03:32:40;16.60;35.70
431;DHT22;202;48.764;9.172;2023-08-08T03:35:08;16.60;35.20
431;DHT22;202;48.764;9.172;2023-08-08T03:37:36;16.50;35.50
431;DHT22;202;48.764;9.172;2023-08-08T03:40:07;16.60;35.20
431;DHT22;202;48.764;9.172;2023-08-08T03:42:34;16.60;35.50
431;DHT22;202;48.764;9.172;2023-08-08T03:45:02;16.60;35.70
431;DHT22;202;48.764;9.172;2023-08-08T03:47:29;16.50;35.70
431;DHT22;202;48.764;9.172;2023-08-08T03:49:56;16.50;36.20
431;DHT22;202;48.764;9.172;2023-08-08T03:52:23;16.60;36.10
431;DHT22;202;48.764;9.172;2023-08-08T03:54:51;16.50;35.80
431;DHT22;202;48.764;9.172;2023-08-08T03:57:22;16.60;36.30
431;DHT22;202;48.764;9.172;2023-08-08T03:59:49;16.60;36.50
431;DHT22;202;48.764;9.172;2023-08-08T04:02:16;16.50;37.00
431;DHT22;202;48.764;9.172;2023-08-08T04:04:43;16.50;38.80
431;DHT22;202;48.764;9.172;2023-08-08T04:07:14;16.60;37.70
431;DHT22;202;48.764;9.172;2023-08-08T04:09:44;16.60;37.90
431;DHT22;202;48.764;9.172;2023-08-08T04:12:17;16.50;37.30
431;DHT22;202;48.764;9.172;2023-08-08T04:14:45;16.40;37.60
431;DHT22;202;48.764;9.172;2023-08-08T04:17:12;16.50;37.30
431;DHT22;202;48.764;9.172;2023-08-08T04:19:47;16.50;37.30
431;DHT22;202;48.764;9.172;2023-08-08T04:22:17;16.50;36.70
431;DHT22;202;48.764;9.172;2023-08-08T04:24:46;16.50;37.10
431;DHT22;202;48.764;9.172;2023-08-08T04:27:13;16.50;36.70
431;DHT22;202;48.764;9.172;2023-08-08T04:29:42;16.50;36.50
431;DHT22;202;48.764;9.172;2023-08-08T04:32:11;16.40;36.60
431;DHT22;202;48.764;9.172;2023-08-08T04:34:41;16.50;36.70
431;DHT22;202;48.764;9.172;2023-08-08T04:37:08;16.50;36.70
431;DHT22;202;48.764;9.172;2023-08-08T04:39:34;16.50;37.20
431;DHT22;202;48.764;9.172;2023-08-08T04:42:01;16.40;37.90
431;DHT22;202;48.764;9.172;2023-08-08T04:44:29;16.30;38.20
431;DHT22;202;48.764;9.172;2023-08-08T04:46:56;16.40;37.80
431;DHT22;202;48.764;9.172;2023-08-08T04:49:55;16.20;37.80
431;DHT22;202;48.764;9.172;2023-08-08T04:52:25;16.40;37.80
431;DHT22;202;48.764;9.172;2023-08-08T04:54:52;16.40;37.80
431;DHT22;202;48.764;9.172;2023-08-08T04:57:27;16.40;37.30
431;DHT22;202;48.764;9.172;2023-08-08T04:59:54;16.40;37.80
431;DHT22;202;48.764;9.172;2023-08-08T05:02:21;16.40;37.70
431;DHT22;202;48.764;9.172;2023-08-08T05:04:49;16.30;37.90
431;DHT22;202;48.764;9.172;2023-08-08T05:07:16;16.20;38.50
431;DHT22;202;48.764;9.172;2023-08-08T05:09:43;16.30;38.30
431;DHT22;202;48.764;9.172;2023-08-08T05:12:10;16.20;38.50
431;DHT22;202;48.764;9.172;2023-08-08T05:14:37;16.30;38.30
431;DHT22;202;48.764;9.172;2023-08-08T05:17:05;16.40;38.00
431;DHT22;202;48.764;9.172;2023-08-08T05:19:32;16.40;37.60
431;DHT22;202;48.764;9.172;2023-08-08T05:22:03;16.40;37.60
431;DHT22;202;48.764;9.172;2023-08-08T05:24:30;16.50;37.70
431;DHT22;202;48.764;9.172;2023-08-08T05:26:58;16.40;37.70
431;DHT22;202;48.764;9.172;2023-08-08T05:29:25;16.40;37.90
431;DHT22;202;48.764;9.172;2023-08-08T05:31:52;16.40;37.60
431;DHT22;202;48.764;9.172;2023-08-08T05:34:20;16.40;37.90
431;DHT22;202;48.764;9.172;2023-08-08T05:36:47;16.50;37.90
431;DHT22;202;48.764;9.172;2023-08-08T05:39:31;16.50;37.70
431;DHT22;202;48.764;9.172;2023-08-08T05:42:07;16.60;37.90
431;DHT22;202;48.764;9.172;2023-08-08T05:44:34;16.60;37.70
431;DHT22;202;48.764;9.172;2023-08-08T05:47:01;16.80;37.70
431;DHT22;202;48.764;9.172;2023-08-08T05:49:29;16.80;37.10
431;DHT22;202;48.764;9.172;2023-08-08T05:51:57;16.90;36.70
431;DHT22;202;48.764;9.172;2023-08-08T05:54:24;17.00;36.30
431;DHT22;202;48.764;9.172;2023-08-08T05:56:55;17.10;36.80
431;DHT22;202;48.764;9.172;2023-08-08T05:59:22;17.20;36.10
431;DHT22;202;48.764;9.172;2023-08-08T06:01:49;17.20;35.90
431;DHT22;202;48.764;9.172;2023-08-08T06:04:17;17.30;35.90
431;DHT22;202;48.764;9.172;2023-08-08T06:06:46;17.40;35.20
431;DHT22;202;48.764;9.172;2023-08-08T06:09:14;17.40;35.80
431;DHT22;202;48.764;9.172;2023-08-08T06:11:41;17.70;34.50
431;DHT22;202;48.764;9.172;2023-08-08T06:14:11;18.00;33.70
431;DHT22;202;48.764;9.172;2023-08-08T06:16:38;18.50;32.10
431;DHT22;202;48.764;9.172;2023-08-08T06:19:05;18.60;31.20
431;DHT22;202;48.764;9.172;2023-08-08T06:21:32;18.60;31.20
431;DHT22;202;48.764;9.172;2023-08-08T06:24:00;18.80;30.30
431;DHT22;202;48.764;9.172;2023-08-08T06:26:27;18.60;30.90
431;DHT22;202;48.764;9.172;2023-08-08T06:28:54;19.10;29.80
431;DHT22;202;48.764;9.172;2023-08-08T06:31:23;19.20;29.60
431;DHT22;202;48.764;9.172;2023-08-08T06:33:50;19.20;29.30
431;DHT22;202;48.764;9.172;2023-08-08T06:36:17;19.10;29.60
431;DHT22;202;48.764;9.172;2023-08-08T06:38:44;18.90;29.90
431;DHT22;202;48.764;9.172;2023-08-08T06:41:25;18.80;30.00
431;DHT22;202;48.764;9.172;2023-08-08T06:44:04;18.60;31.20
431;DHT22;202;48.764;9.172;2023-08-08T06:46:32;18.60;31.20
431;DHT22;202;48.764;9.172;2023-08-08T06:49:00;18.60;31.00
431;DHT22;202;48.764;9.172;2023-08-08T06:51:27;18.50;31.10
431;DHT22;202;48.764;9.172;2023-08-08T06:53:54;18.60;31.20
431;DHT22;202;48.764;9.172;2023-08-08T06:56:21;18.60;31.20
431;DHT22;202;48.764;9.172;2023-08-08T06:59:04;18.70;31.20
431;DHT22;202;48.764;9.172;2023-08-08T07:01:33;18.80;31.30
431;DHT22;202;48.764;9.172;2023-08-08T07:04:08;19.00;31.50
431;DHT22;202;48.764;9.172;2023-08-08T07:07:04;19.20;31.20
431;DHT22;202;48.764;9.172;2023-08-08T07:23:51;20.00;28.10
431;DHT22;202;48.764;9.172;2023-08-08T07:26:27;20.20;27.50
431;DHT22;202;48.764;9.172;2023-08-08T07:28:58;20.40;27.30
431;DHT22;202;48.764;9.172;2023-08-08T07:34:41;21.80;24.30
431;DHT22;202;48.764;9.172;2023-08-08T07:37:49;22.40;22.80
431;DHT22;202;48.764;9.172;2023-08-08T07:43:36;24.10;20.20
431;DHT22;202;48.764;9.172;2023-08-08T07:46:54;24.40;19.30
431;DHT22;202;48.764;9.172;2023-08-08T07:56:27;26.40;15.60
431;DHT22;202;48.764;9.172;2023-08-08T07:59:09;25.30;15.60
431;DHT22;202;48.764;9.172;2023-08-08T08:04:39;24.30;18.40
431;DHT22;202;48.764;9.172;2023-08-08T08:07:08;24.00;18.20
431;DHT22;202;48.764;9.172;2023-08-08T08:09:35;24.00;18.10
431;DHT22;202;48.764;9.172;2023-08-08T08:12:03;23.90;18.10
431;DHT22;202;48.764;9.172;2023-08-08T08:14:32;23.80;18.00
431;DHT22;202;48.764;9.172;2023-08-08T08:16:59;24.00;17.30
431;DHT22;202;48.764;9.172;2023-08-08T08:19:36;23.70;17.90
431;DHT22;202;48.764;9.172;2023-08-08T08:25:45;23.00;18.30
431;DHT22;202;48.764;9.172;2023-08-08T08:31:44;22.20;20.30
431;DHT22;202;48.764;9.172;2023-08-08T08:34:17;22.00;21.70
431;DHT22;202;48.764;9.172;2023-08-08T09:15:44;22.70;20.30
431;DHT22;202;48.764;9.172;2023-08-08T09:18:22;22.80;20.50
431;DHT22;202;48.764;9.172;2023-08-08T09:23:18;23.10;18.30
431;DHT22;202;48.764;9.172;2023-08-08T09:25:48;22.80;18.60
431;DHT22;202;48.764;9.172;2023-08-08T09:28:17;22.70;19.30
431;DHT22;202;48.764;9.172;2023-08-08T09:30:44;22.50;20.30
431;DHT22;202;48.764;9.172;2023-08-08T09:33:11;22.50;19.70
431;DHT22;202;48.764;9.172;2023-08-08T09:35:38;22.50;20.00
431;DHT22;202;48.764;9.172;2023-08-08T09:38:06;22.50;20.20
431;DHT22;202;48.764;9.172;2023-08-08T09:40:33;22.90;20.10
431;DHT22;202;48.764;9.172;2023-08-08T09:43:00;23.00;19.10
431;DHT22;202;48.764;9.172;2023-08-08T09:45:35;23.20;17.80
431;DHT22;202;48.764;9.172;2023-08-08T09:48:06;23.00;18.70
431;DHT22;202;48.764;9.172;2023-08-08T09:50:36;23.10;19.30
431;DHT22;202;48.764;9.172;2023-08-08T09:53:04;23.20;18.80
431;DHT22;202;48.764;9.172;2023-08-08T09:55:32;23.20;18.00
431;DHT22;202;48.764;9.172;2023-08-08T09:58:00;23.00;19.00
431;DHT22;202;48.764;9.172;2023-08-08T10:03:53;23.20;19.20
431;DHT22;202;48.764;9.172;2023-08-08T10:06:20;23.40;18.30
431;DHT22;202;48.764;9.172;2023-08-08T10:08:47;23.50;17.80
431;DHT22;202;48.764;9.172;2023-08-08T10:11:15;23.50;16.90
431;DHT22;202;48.764;9.172;2023-08-08T10:13:48;23.40;16.80
431;DHT22;202;48.764;9.172;2023-08-08T10:16:19;23.50;16.90
431;DHT22;202;48.764;9.172;2023-08-08T10:18:57;23.50;16.70
431;DHT22;202;48.764;9.172;2023-08-08T10:21:25;23.50;16.10
431;DHT22;202;48.764;9.172;2023-08-08T10:24:02;23.70;14.70
431;DHT22;202;48.764;9.172;2023-08-08T10:26:30;23.80;14.50
431;DHT22;202;48.764;9.172;2023-08-08T10:28:58;24.00;14.30
431;DHT22;202;48.764;9.172;2023-08-08T10:31:32;24.30;14.00
431;DHT22;202;48.764;9.172;2023-08-08T10:34:03;24.20;14.00
431;DHT22;202;48.764;9.172;2023-08-08T10:36:49;24.00;13.60
431;DHT22;202;48.764;9.172;2023-08-08T10:39:35;24.30;13.60
431;DHT22;202;48.764;9.172;2023-08-08T10:42:04;24.20;13.60
431;DHT22;202;48.764;9.172;2023-08-08T10:44:31;24.30;14.70
431;DHT22;202;48.764;9.172;2023-08-08T10:47:07;24.10;12.40
431;DHT22;202;48.764;9.172;2023-08-08T10:49:42;24.00;12.30
431;DHT22;202;48.764;9.172;2023-08-08T10:52:26;24.20;13.00
431;DHT22;202;48.764;9.172;2023-08-08T10:55:01;24.20;11.50
431;DHT22;202;48.764;9.172;2023-08-08T10:57:28;24.00;11.70
431;DHT22;202;48.764;9.172;2023-08-08T11:00:23;24.00;12.40
431;DHT22;202;48.764;9.172;2023-08-08T11:02:53;23.90;11.10
431;DHT22;202;48.764;9.172;2023-08-08T11:05:29;23.50;11.90
431;DHT22;202;48.764;9.172;2023-08-08T11:08:02;23.40;12.50
431;DHT22;202;48.764;9.172;2023-08-08T11:10:38;23.30;13.10
431;DHT22;202;48.764;9.172;2023-08-08T11:13:13;23.40;12.40
431;DHT22;202;48.764;9.172;2023-08-08T11:16:02;23.50;11.30
431;DHT22;202;48.764;9.172;2023-08-08T11:18:29;23.40;11.50
431;DHT22;202;48.764;9.172;2023-08-08T11:20:58;23.30;11.90
431;DHT22;202;48.764;9.172;2023-08-08T11:23:28;23.20;13.50
431;DHT22;202;48.764;9.172;2023-08-08T11:25:55;23.50;13.50
431;DHT22;202;48.764;9.172;2023-08-08T11:28:37;23.60;13.20
431;DHT22;202;48.764;9.172;2023-08-08T11:31:10;23.70;12.80
431;DHT22;202;48.764;9.172;2023-08-08T11:33:38;23.70;11.70
431;DHT22;202;48.764;9.172;2023-08-08T11:36:10;23.80;11.70
431;DHT22;202;48.764;9.172;2023-08-08T11:40:34;23.80;10.80
431;DHT22;202;48.764;9.172;2023-08-08T11:42:44;24.00;11.30
431;DHT22;202;48.764;9.172;2023-08-08T11:45:48;23.90;11.60
431;DHT22;202;48.764;9.172;2023-08-08T11:51:21;23.70;12.60
431;DHT22;202;48.764;9.172;2023-08-08T11:54:18;23.60;13.40
431;DHT22;202;48.764;9.172;2023-08-08T11:56:54;23.50;13.60
431;DHT22;202;48.764;9.172;2023-08-08T11:59:23;23.50;13.80
431;DHT22;202;48.764;9.172;2023-08-08T12:01:54;23.50;12.70
431;DHT22;202;48.764;9.172;2023-08-08T12:04:30;23.60;11.80
431;DHT22;202;48.764;9.172;2023-08-08T12:07:05;23.60;12.10
431;DHT22;202;48.764;9.172;2023-08-08T12:09:33;23.70;11.20
431;DHT22;202;48.764;9.172;2023-08-08T12:12:01;23.70;11.90
431;DHT22;202;48.764;9.172;2023-08-08T12:14:36;23.60;11.70
431;DHT22;202;48.764;9.172;2023-08-08T12:17:20;23.80;11.60
431;DHT22;202;48.764;9.172;2023-08-08T12:23:18;24.00;12.10
431;DHT22;202;48.764;9.172;2023-08-08T12:25:53;24.10;11.00
431;DHT22;202;48.764;9.172;2023-08-08T12:28:20;24.10;11.50
431;DHT22;202;48.764;9.172;2023-08-08T12:30:49;24.10;12.80
431;DHT22;202;48.764;9.172;2023-08-08T12:33:23;24.10;11.70
431;DHT22;202;48.764;9.172;2023-08-08T12:35:50;24.10;11.30
431;DHT22;202;48.764;9.172;2023-08-08T12:38:19;24.00;11.80
431;DHT22;202;48.764;9.172;2023-08-08T12:40:48;24.00;12.00
431;DHT22;202;48.764;9.172;2023-08-08T12:46:37;24.00;13.50
431;DHT22;202;48.764;9.172;2023-08-08T12:49:21;24.10;13.20
431;DHT22;202;48.764;9.172;2023-08-08T12:52:41;24.10;12.70
431;DHT22;202;48.764;9.172;2023-08-08T12:58:33;24.00;12.40
431;DHT22;202;48.764;9.172;2023-08-08T13:01:02;24.00;12.20
431;DHT22;202;48.764;9.172;2023-08-08T13:03:30;23.80;11.70
431;DHT22;202;48.764;9.172;2023-08-08T13:06:02;23.70;12.20
431;DHT22;202;48.764;9.172;2023-08-08T13:08:32;23.70;12.60
431;DHT22;202;48.764;9.172;2023-08-08T13:11:08;23.80;13.60
431;DHT22;202;48.764;9.172;2023-08-08T13:13:58;23.70;13.30
431;DHT22;202;48.764;9.172;2023-08-08T13:16:31;23.60;12.90
431;DHT22;202;48.764;9.172;2023-08-08T13:18:59;23.50;13.60
431;DHT22;202;48.764;9.172;2023-08-08T13:21:27;23.60;14.10
431;DHT22;202;48.764;9.172;2023-08-08T13:23:54;23.60;15.10
431;DHT22;202;48.764;9.172;2023-08-08T13:26:42;23.60;15.60
431;DHT22;202;48.764;9.172;2023-08-08T13:29:11;23.40;14.70
431;DHT22;202;48.764;9.172;2023-08-08T13:31:39;23.40;14.90
431;DHT22;202;48.764;9.172;2023-08-08T13:34:06;23.30;14.60
431;DHT22;202;48.764;9.172;2023-08-08T13:36:33;23.40;15.30
431;DHT22;202;48.764;9.172;2023-08-08T13:39:00;23.40;15.20
431;DHT22;202;48.764;9.172;2023-08-08T13:41:27;23.40;14.90
431;DHT22;202;48.764;9.172;2023-08-08T13:43:54;23.40;15.10
431;DHT22;202;48.764;9.172;2023-08-08T13:46:23;23.20;15.30
431;DHT22;202;48.764;9.172;2023-08-08T13:48:50;23.10;16.10
431;DHT22;202;48.764;9.172;2023-08-08T13:51:19;23.10;15.90
431;DHT22;202;48.764;9.172;2023-08-08T13:53:46;23.20;15.90
431;DHT22;202;48.764;9.172;2023-08-08T13:56:14;23.30;16.70
431;DHT22;202;48.764;9.172;2023-08-08T13:58:41;23.30;14.80
431;DHT22;202;48.764;9.172;2023-08-08T14:01:09;23.20;14.70
431;DHT22;202;48.764;9.172;2023-08-08T14:03:38;23.20;15.10
431;DHT22;202;48.764;9.172;2023-08-08T14:06:05;23.40;15.60
431;DHT22;202;48.764;9.172;2023-08-08T14:08:32;23.40;14.50
431;DHT22;202;48.764;9.172;2023-08-08T14:10:59;23.30;14.10
431;DHT22;202;48.764;9.172;2023-08-08T14:13:26;23.20;14.80
431;DHT22;202;48.764;9.172;2023-08-08T14:15:53;23.20;14.30
431;DHT22;202;48.764;9.172;2023-08-08T14:18:21;23.20;15.10
431;DHT22;202;48.764;9.172;2023-08-08T14:20:49;23.30;14.80
431;DHT22;202;48.764;9.172;2023-08-08T14:23:16;23.30;14.90
431;DHT22;202;48.764;9.172;2023-08-08T14:25:43;23.30;15.10
431;DHT22;202;48.764;9.172;2023-08-08T14:28:11;23.30;14.90
431;DHT22;202;48.764;9.172;2023-08-08T14:30:38;23.30;15.00
431;DHT22;202;48.764;9.172;2023-08-08T14:33:05;23.20;14.70
431;DHT22;202;48.764;9.172;2023-08-08T14:35:32;23.20;15.40
431;DHT22;202;48.764;9.172;2023-08-08T14:38:00;23.20;15.70
431;DHT22;202;48.764;9.172;2023-08-08T14:40:28;23.10;15.80
431;DHT22;202;48.764;9.172;2023-08-08T14:42:57;23.10;15.90
431;DHT22;202;48.764;9.172;2023-08-08T14:45:24;23.10;16.00
431;DHT22;202;48.764;9.172;2023-08-08T14:47:51;23.10;16.70
431;DHT22;202;48.764;9.172;2023-08-08T14:50:19;23.10;16.20
431;DHT22;202;48.764;9.172;2023-08-08T14:52:46;23.10;16.40
431;DHT22;202;48.764;9.172;2023-08-08T14:55:14;23.10;16.60
431;DHT22;202;48.764;9.172;2023-08-08T14:57:41;23.10;16.70
431;DHT22;202;48.764;9.172;2023-08-08T15:00:10;23.10;16.40
431;DHT22;202;48.764;9.172;2023-08-08T15:02:38;23.00;17.30
431;DHT22;202;48.764;9.172;2023-08-08T15:05:05;22.90;16.60
431;DHT22;202;48.764;9.172;2023-08-08T15:07:33;22.90;16.80
431;DHT22;202;48.764;9.172;2023-08-08T15:10:00;22.90;16.50
431;DHT22;202;48.764;9.172;2023-08-08T15:12:28;22.90;16.50
431;DHT22;202;48.764;9.172;2023-08-08T15:14:56;22.80;17.00
431;DHT22;202;48.764;9.172;2023-08-08T15:17:23;22.80;17.30
431;DHT22;202;48.764;9.172;2023-08-08T15:19:50;22.70;17.20
431;DHT22;202;48.764;9.172;2023-08-08T15:28:32;22.80;17.30
431;DHT22;202;48.764;9.172;2023-08-08T15:34:43;23.10;17.00
431;DHT22;202;48.764;9.172;2023-08-08T15:41:00;23.00;16.50
431;DHT22;202;48.764;9.172;2023-08-08T15:43:46;22.80;17.40
431;DHT22;202;48.764;9.172;2023-08-08T15:46:26;22.70;17.30
431;DHT22;202;48.764;9.172;2023-08-08T15:49:10;22.70;17.20
431;DHT22;202;48.764;9.172;2023-08-08T15:51:46;22.60;17.20
431;DHT22;202;48.764;9.172;2023-08-08T15:54:19;22.60;17.70
431;DHT22;202;48.764;9.172;2023-08-08T15:57:05;22.60;17.70
431;DHT22;202;48.764;9.172;2023-08-08T15:59:43;22.50;18.20
431;DHT22;202;48.764;9.172;2023-08-08T16:06:09;22.60;18.30
431;DHT22;202;48.764;9.172;2023-08-08T16:12:09;22.50;18.10
431;DHT22;202;48.764;9.172;2023-08-08T16:18:06;22.40;18.50
431;DHT22;202;48.764;9.172;2023-08-08T16:20:58;22.40;18.20
431;DHT22;202;48.764;9.172;2023-08-08T16:23:42;22.40;18.40
431;DHT22;202;48.764;9.172;2023-08-08T17:04:04;22.00;19.10
431;DHT22;202;48.764;9.172;2023-08-08T17:06:51;22.10;19.20
431;DHT22;202;48.764;9.172;2023-08-08T17:09:34;22.10;19.40
431;DHT22;202;48.764;9.172;2023-08-08T17:12:06;22.10;19.50
431;DHT22;202;48.764;9.172;2023-08-08T17:14:57;22.20;19.60
431;DHT22;202;48.764;9.172;2023-08-08T17:17:37;22.20;19.40
431;DHT22;202;48.764;9.172;2023-08-08T17:23:52;22.30;19.70
431;DHT22;202;48.764;9.172;2023-08-08T17:26:44;22.30;19.30
431;DHT22;202;48.764;9.172;2023-08-08T17:29:34;22.30;19.60
431;DHT22;202;48.764;9.172;2023-08-08T17:37:37;22.30;18.60
431;DHT22;202;48.764;9.172;2023-08-08T17:40:33;22.30;18.70
431;DHT22;202;48.764;9.172;2023-08-08T17:43:09;22.20;18.60
431;DHT22;202;48.764;9.172;2023-08-08T17:45:59;22.10;19.00
431;DHT22;202;48.764;9.172;2023-08-08T19:05:07;21.40;24.00
431;DHT22;202;48.764;9.172;2023-08-08T19:08:20;21.40;23.90
431;DHT22;202;48.764;9.172;2023-08-08T19:11:32;21.30;23.30
431;DHT22;202;48.764;9.172;2023-08-08T19:17:42;21.30;24.10
431;DHT22;202;48.764;9.172;2023-08-08T19:27:19;21.20;23.90
431;DHT22;202;48.764;9.172;2023-08-08T19:33:35;21.10;24.50
431;DHT22;202;48.764;9.172;2023-08-08T19:36:21;21.10;24.50
431;DHT22;202;48.764;9.172;2023-08-08T19:39:14;21.10;24.60
431;DHT22;202;48.764;9.172;2023-08-08T19:42:04;21.10;24.80
431;DHT22;202;48.764;9.172;2023-08-08T19:44:55;21.10;24.50
431;DHT22;202;48.764;9.172;2023-08-08T19:47:29;21.10;24.60
431;DHT22;202;48.764;9.172;2023-08-08T19:50:10;21.00;24.50
431;DHT22;202;48.764;9.172;2023-08-08T19:52:46;21.00;24.50
431;DHT22;202;48.764;9.172;2023-08-08T19:55:34;21.00;24.50
431;DHT22;202;48.764;9.172;2023-08-08T19:58:28;21.00;24.50
431;DHT22;202;48.764;9.172;2023-08-08T20:01:19;21.00;24.50
431;DHT22;202;48.764;9.172;2023-08-08T20:04:23;21.10;24.60
431;DHT22;202;48.764;9.172;2023-08-08T20:07:12;21.00;24.50
431;DHT22;202;48.764;9.172;2023-08-08T20:10:21;21.00;24.50
431;DHT22;202;48.764;9.172;2023-08-08T20:13:10;21.00;24.50
431;DHT22;202;48.764;9.172;2023-08-08T20:18:34;21.00;24.80
431;DHT22;202;48.764;9.172;2023-08-08T20:21:09;21.00;24.50
431;DHT22;202;48.764;9.172;2023-08-08T20:24:00;21.00;24.50
431;DHT22;202;48.764;9.172;2023-08-08T20:26:36;20.90;24.40
431;DHT22;202;48.764;9.172;2023-08-08T20:29:30;20.80;24.70
431;DHT22;202;48.764;9.172;2023-08-08T20:32:13;20.80;24.90
431;DHT22;202;48.764;9.172;2023-08-08T20:34:40;20.80;25.00
431;DHT22;202;48.764;9.172;2023-08-08T20:37:07;20.70;25.20
431;DHT22;202;48.764;9.172;2023-08-08T20:39:33;20.70;25.30
431;DHT22;202;48.764;9.172;2023-08-08T20:42:17;20.70;25.10
431;DHT22;202;48.764;9.172;2023-08-08T20:44:44;20.70;25.20
431;DHT22;202;48.764;9.172;2023-08-08T20:47:10;20.60;25.40
431;DHT22;202;48.764;9.172;2023-08-08T20:49:38;20.70;25.50
431;DHT22;202;48.764;9.172;2023-08-08T20:52:09;20.60;25.60
431;DHT22;202;48.764;9.172;2023-08-08T20:54:36;20.60;25.90
431;DHT22;202;48.764;9.172;2023-08-08T20:57:04;20.60;25.90
431;DHT22;202;48.764;9.172;2023-08-08T20:59:35;20.60;25.80
431;DHT22;202;48.764;9.172;2023-08-08T21:02:06;20.40;26.20
431;DHT22;202;48.764;9.172;2023-08-08T21:04:34;20.30;26.60
431;DHT22;202;48.764;9.172;2023-08-08T21:07:03;20.30;26.70
431;DHT22;202;48.764;9.172;2023-08-08T21:09:31;20.20;26.70
431;DHT22;202;48.764;9.172;2023-08-08T21:12:00;20.30;27.10
431;DHT22;202;48.764;9.172;2023-08-08T21:14:33;20.30;27.00
431;DHT22;202;48.764;9.172;2023-08-08T21:17:09;20.30;26.90
431;DHT22;202;48.764;9.172;2023-08-08T21:19:42;20.40;26.80
431;DHT22;202;48.764;9.172;2023-08-08T21:22:23;20.30;26.80
431;DHT22;202;48.764;9.172;2023-08-08T21:24:53;20.20;26.90
431;DHT22;202;48.764;9.172;2023-08-08T21:27:25;20.10;27.30
431;DHT22;202;48.764;9.172;2023-08-08T21:29:57;20.00;27.30